Time;durP1;ratioP1;P1;durP2;ratioP2;P2;SDS_P1;SDS_P2;PMS_P1;PMS_P2;Temp;Humidity;BMP_temperature;BMP_pressure;BME280_temperature;BME280_humidity;BME280_pressure;Samples;Min_cycle;Max_cycle;Signal;HPM_P1;HPM_P2
2022/06/11 00:01:56;;;;;;;4.80;2.50;;;18.10;99.90;;;;;;5026853;28;20022;-76
2022/06/11 00:04:42;;;;;;;9.85;2.55;;;18.10;99.90;;;;;;5024873;28;20049;-76
2022/06/11 00:07:13;;;;;;;7.38;2.92;;;18.10;99.90;;;;;;5027630;28;20084;-76
2022/06/11 00:09:40;;;;;;;7.72;3.10;;;18.00;99.90;;;;;;5030613;28;20021;-76
2022/06/11 00:12:07;;;;;;;5.60;2.35;;;17.90;99.90;;;;;;5030877;28;20049;-76
2022/06/11 00:14:34;;;;;;;5.80;2.83;;;17.90;99.90;;;;;;5032749;28;20493;-76
2022/06/11 00:17:01;;;;;;;4.85;2.53;;;18.00;99.90;;;;;;5034176;28;20075;-76
2022/06/11 00:19:29;;;;;;;3.83;2.53;;;17.90;99.90;;;;;;5034617;28;20053;-76
2022/06/11 00:21:55;;;;;;;7.57;2.58;;;17.90;99.90;;;;;;5033943;28;20029;-76
2022/06/11 00:24:23;;;;;;;7.63;2.78;;;17.90;99.90;;;;;;5034129;28;20036;-76
2022/06/11 00:26:51;;;;;;;9.45;3.03;;;17.80;99.90;;;;;;5034011;28;20022;-75
2022/06/11 00:29:21;;;;;;;7.25;2.45;;;17.90;99.90;;;;;;5024973;28;20025;-75
2022/06/11 00:31:47;;;;;;;6.20;2.78;;;17.80;99.90;;;;;;5025896;28;20022;-75
2022/06/11 00:34:14;;;;;;;3.78;2.22;;;17.80;99.90;;;;;;5033418;28;20033;-76
2022/06/11 00:36:40;;;;;;;5.43;3.10;;;17.80;99.90;;;;;;5016223;28;20022;-76
2022/06/11 00:39:08;;;;;;;5.97;2.58;;;17.70;99.90;;;;;;5034794;28;20111;-76
2022/06/11 00:41:37;;;;;;;6.95;3.00;;;17.70;99.90;;;;;;5019878;28;20029;-76
2022/06/11 00:44:04;;;;;;;6.38;2.50;;;17.60;99.90;;;;;;5033998;28;20543;-76
2022/06/11 00:46:50;;;;;;;6.38;2.63;;;17.60;99.90;;;;;;5036735;28;20028;-76
2022/06/11 00:49:18;;;;;;;11.07;2.95;;;17.50;99.90;;;;;;5035078;28;20041;-76
2022/06/11 00:51:46;;;;;;;7.32;2.50;;;17.50;99.90;;;;;;5012842;28;20055;-76
2022/06/11 00:54:17;;;;;;;4.72;2.70;;;17.50;99.90;;;;;;5032136;28;20155;-76
2022/06/11 00:56:48;;;;;;;7.47;2.97;;;17.40;99.90;;;;;;5035886;28;20021;-76
2022/06/11 00:59:20;;;;;;;3.30;2.50;;;17.30;99.90;;;;;;5035393;28;20029;-76
2022/06/11 01:01:47;;;;;;;5.13;2.50;;;17.30;99.90;;;;;;5024678;28;20053;-76
2022/06/11 01:04:37;;;;;;;7.75;3.13;;;17.20;99.90;;;;;;5006856;28;20112;-76
2022/06/11 01:07:18;;;;;;;5.15;2.78;;;17.10;99.90;;;;;;5002180;28;20033;-75
2022/06/11 01:10:03;;;;;;;6.43;2.80;;;17.10;99.90;;;;;;5022239;28;20168;-75
2022/06/11 01:12:57;;;;;;;9.43;3.10;;;17.10;99.90;;;;;;5022092;28;20033;-76
2022/06/11 01:15:42;;;;;;;6.47;2.65;;;17.10;99.90;;;;;;5027881;28;20032;-76
2022/06/11 01:18:22;;;;;;;4.35;2.40;;;17.00;99.90;;;;;;5010006;28;20038;-76
2022/06/11 01:20:58;;;;;;;6.53;2.47;;;17.00;99.90;;;;;;5015570;28;20036;-75
2022/06/11 01:23:51;;;;;;;5.28;3.00;;;16.90;99.90;;;;;;5034619;28;20030;-75
2022/06/11 01:26:29;;;;;;;6.30;2.83;;;16.90;99.90;;;;;;5028733;28;20029;-76
2022/06/11 01:29:10;;;;;;;4.40;2.80;;;16.80;99.90;;;;;;5029706;28;20017;-76
2022/06/11 01:32:08;;;;;;;8.73;2.95;;;16.70;99.90;;;;;;5016788;28;20100;-75
2022/06/11 01:35:01;;;;;;;5.40;2.28;;;16.70;99.90;;;;;;4991298;28;20057;-76
2022/06/11 01:37:42;;;;;;;5.32;2.65;;;16.60;99.90;;;;;;5031664;28;20025;-75
2022/06/11 01:40:33;;;;;;;11.27;2.92;;;16.60;99.90;;;;;;5033471;28;20032;-76
2022/06/11 01:43:10;;;;;;;6.20;3.03;;;16.60;99.90;;;;;;5030198;28;20021;-75
2022/06/11 01:45:37;;;;;;;5.68;2.83;;;16.50;99.90;;;;;;5033304;28;20029;-75
2022/06/11 01:48:06;;;;;;;12.52;3.15;;;16.50;99.90;;;;;;5026331;28;20116;-75
2022/06/11 01:50:37;;;;;;;6.38;2.95;;;16.40;99.90;;;;;;5035017;28;20072;-76
2022/06/11 01:53:31;;;;;;;5.72;2.83;;;16.30;99.90;;;;;;5031153;28;20026;-75
2022/06/11 01:56:20;;;;;;;7.35;2.80;;;16.30;99.90;;;;;;5015723;28;20038;-75
2022/06/11 01:58:57;;;;;;;5.07;2.80;;;16.20;99.90;;;;;;5030875;28;20036;-76
2022/06/11 02:01:49;;;;;;;7.20;3.58;;;16.20;99.90;;;;;;5032868;28;20036;-76
2022/06/11 02:04:33;;;;;;;5.25;3.08;;;16.20;99.90;;;;;;5016525;28;20030;-75
2022/06/11 02:07:05;;;;;;;11.20;2.97;;;16.20;99.90;;;;;;5009651;28;20021;-75
2022/06/11 02:10:04;;;;;;;6.05;2.88;;;16.20;99.90;;;;;;5035407;28;20097;-75
2022/06/11 02:12:49;;;;;;;6.47;3.47;;;16.10;99.90;;;;;;5028173;28;20029;-75
2022/06/11 02:15:28;;;;;;;7.47;2.90;;;16.10;99.90;;;;;;5010239;28;20025;-75
2022/06/11 02:18:08;;;;;;;5.70;3.17;;;16.10;99.90;;;;;;5013695;28;20102;-75
2022/06/11 02:21:04;;;;;;;5.38;2.92;;;16.00;99.90;;;;;;5017199;28;20029;-75
2022/06/11 02:23:42;;;;;;;10.18;3.13;;;16.00;99.90;;;;;;5035191;28;20033;-75
2022/06/11 02:26:31;;;;;;;8.93;2.78;;;16.00;99.90;;;;;;5037488;28;20031;-76
2022/06/11 02:28:59;;;;;;;6.10;3.35;;;15.90;99.90;;;;;;5018705;28;20048;-75
2022/06/11 02:31:32;;;;;;;7.57;3.58;;;15.90;99.90;;;;;;5031391;28;20072;-75
2022/06/11 02:34:03;;;;;;;4.15;3.00;;;15.80;99.90;;;;;;5036119;28;20029;-75
2022/06/11 02:36:32;;;;;;;5.95;3.25;;;15.80;99.90;;;;;;5036937;28;20155;-75
2022/06/11 02:39:01;;;;;;;3.80;2.88;;;15.80;99.90;;;;;;5037232;28;20339;-76
2022/06/11 02:41:30;;;;;;;6.05;3.08;;;15.90;99.90;;;;;;5036111;28;20037;-76
2022/06/11 02:43:57;;;;;;;8.47;2.97;;;15.80;99.90;;;;;;5035936;28;20578;-75
2022/06/11 02:49:21;;;;;;;6.28;3.15;;;15.70;99.90;;;;;;5036676;28;20052;-76
2022/06/11 02:51:49;;;;;;;4.53;3.28;;;15.70;99.90;;;;;;5033024;28;20025;-76
2022/06/11 02:54:17;;;;;;;4.93;3.78;;;15.60;99.90;;;;;;5039409;28;20053;-75
2022/06/11 02:56:44;;;;;;;7.30;3.78;;;15.60;99.90;;;;;;5036937;28;20079;-76
2022/06/11 02:59:10;;;;;;;5.70;3.15;;;15.50;99.90;;;;;;5017524;28;20438;-76
2022/06/11 03:01:36;;;;;;;8.38;3.00;;;15.50;99.90;;;;;;5019718;28;20041;-76
2022/06/11 03:04:03;;;;;;;9.50;3.78;;;15.50;99.90;;;;;;5035389;28;20382;-75
2022/06/11 03:06:29;;;;;;;10.30;3.90;;;15.50;99.90;;;;;;5035392;28;20067;-76
2022/06/11 03:08:57;;;;;;;6.80;3.58;;;15.50;99.90;;;;;;5037159;28;20045;-76
2022/06/11 03:11:23;;;;;;;6.57;3.22;;;15.50;99.90;;;;;;5019781;28;20025;-76
2022/06/11 03:13:49;;;;;;;4.35;3.03;;;15.50;99.90;;;;;;5031714;28;20040;-76
2022/06/11 03:16:15;;;;;;;4.93;2.75;;;15.50;99.90;;;;;;5034483;28;20033;-75
2022/06/11 03:18:41;;;;;;;8.57;3.47;;;15.40;99.90;;;;;;5035346;28;20029;-75
2022/06/11 03:21:07;;;;;;;5.22;3.10;;;15.40;99.90;;;;;;5035255;28;20068;-76
2022/06/11 03:23:33;;;;;;;5.90;3.22;;;15.40;99.90;;;;;;5018289;28;20478;-75
2022/06/11 03:25:59;;;;;;;7.47;3.25;;;15.40;99.90;;;;;;5034735;28;20438;-75
2022/06/11 03:28:28;;;;;;;6.43;3.55;;;15.40;99.90;;;;;;5020377;28;20022;-75
2022/06/11 03:30:54;;;;;;;4.70;2.83;;;15.40;99.90;;;;;;5028951;28;20075;-75
2022/06/11 03:33:22;;;;;;;6.53;3.17;;;15.40;99.90;;;;;;5037472;28;20492;-76
2022/06/11 03:35:49;;;;;;;7.55;2.92;;;15.40;99.90;;;;;;5035062;28;20024;-76
2022/06/11 03:38:17;;;;;;;9.20;3.10;;;15.30;99.90;;;;;;5014832;28;20025;-76
2022/06/11 03:40:43;;;;;;;7.03;3.67;;;15.30;99.90;;;;;;5033971;28;20112;-75
2022/06/11 03:43:09;;;;;;;7.85;3.70;;;15.20;99.90;;;;;;5036640;28;20517;-76
2022/06/11 03:45:36;;;;;;;3.90;3.45;;;15.20;99.90;;;;;;5013693;28;20018;-75
2022/06/11 03:48:03;;;;;;;5.00;3.00;;;15.10;99.90;;;;;;5034050;28;20049;-76
2022/06/11 03:50:32;;;;;;;6.20;3.40;;;15.00;99.90;;;;;;5035359;28;20026;-76
2022/06/11 03:52:59;;;;;;;4.90;3.20;;;15.10;99.90;;;;;;5018059;28;20125;-76
2022/06/11 03:55:26;;;;;;;6.03;2.75;;;15.00;99.90;;;;;;5037541;28;20116;-75
2022/06/11 03:57:52;;;;;;;7.57;3.20;;;15.00;99.90;;;;;;5034328;28;20026;-76
2022/06/11 04:01:14;;;;;;;5.13;3.15;;;15.00;99.90;;;;;;5035470;28;20025;-76
2022/06/11 04:03:08;;;;;;;6.45;3.72;;;15.00;99.90;;;;;;5034461;28;20033;-76
2022/06/11 04:05:34;;;;;;;6.65;3.08;;;14.90;99.90;;;;;;5029175;28;20100;-76
2022/06/11 04:08:00;;;;;;;5.57;3.50;;;14.90;99.90;;;;;;5036103;28;20028;-76
2022/06/11 04:10:26;;;;;;;10.48;3.65;;;14.90;99.90;;;;;;5035180;28;20017;-76
2022/06/11 04:12:52;;;;;;;3.67;2.97;;;14.90;99.90;;;;;;5035370;28;20029;-76
2022/06/11 04:15:18;;;;;;;4.47;3.17;;;14.90;99.90;;;;;;5035129;28;20029;-76
2022/06/11 04:17:44;;;;;;;7.30;3.65;;;14.90;99.90;;;;;;5015618;28;20041;-76
2022/06/11 04:20:13;;;;;;;10.50;3.25;;;14.80;99.90;;;;;;5036320;28;20028;-76
2022/06/11 04:22:39;;;;;;;7.22;3.75;;;14.80;99.90;;;;;;5034764;28;20017;-76
2022/06/11 04:25:05;;;;;;;7.00;3.38;;;14.80;99.90;;;;;;5036409;28;20029;-76
2022/06/11 04:27:32;;;;;;;5.05;3.67;;;14.80;99.90;;;;;;5033758;28;20026;-76
2022/06/11 04:29:58;;;;;;;7.60;4.15;;;14.80;99.90;;;;;;5033534;28;20017;-76
2022/06/11 04:32:26;;;;;;;8.82;3.85;;;14.80;99.90;;;;;;5033479;28;20029;-75
2022/06/11 04:34:52;;;;;;;4.35;3.38;;;14.90;99.90;;;;;;5036444;28;20071;-75
2022/06/11 04:37:21;;;;;;;3.55;3.22;;;14.90;99.90;;;;;;5035481;28;20036;-75
2022/06/11 04:39:50;;;;;;;3.92;3.13;;;14.90;99.90;;;;;;5017352;28;20021;-75
2022/06/11 04:42:16;;;;;;;5.50;3.42;;;14.90;99.90;;;;;;5032675;28;20056;-75
2022/06/11 04:44:44;;;;;;;4.47;3.20;;;14.90;99.90;;;;;;5016466;28;20052;-75
2022/06/11 04:47:12;;;;;;;5.53;3.22;;;14.90;99.90;;;;;;5035557;28;20025;-75
2022/06/11 04:49:39;;;;;;;8.00;3.28;;;14.90;99.90;;;;;;5034822;28;20029;-75
2022/06/11 04:52:05;;;;;;;5.57;2.92;;;14.90;99.90;;;;;;5032749;28;20490;-75
2022/06/11 04:54:32;;;;;;;7.22;3.40;;;15.00;99.90;;;;;;5015756;28;20097;-75
2022/06/11 04:56:58;;;;;;;5.47;3.08;;;15.10;99.90;;;;;;5015320;28;20052;-76
2022/06/11 04:59:24;;;;;;;5.18;3.42;;;15.20;99.90;;;;;;5017346;28;20045;-75
2022/06/11 05:01:50;;;;;;;10.00;3.60;;;15.20;99.90;;;;;;5014962;28;20028;-75
2022/06/11 05:04:16;;;;;;;5.15;3.15;;;15.30;99.90;;;;;;5027130;28;20025;-75
2022/06/11 05:06:45;;;;;;;3.40;2.72;;;15.30;99.90;;;;;;5020633;28;20034;-75
2022/06/11 05:09:13;;;;;;;4.70;3.30;;;15.40;99.90;;;;;;5031414;28;20059;-75
2022/06/11 05:11:40;;;;;;;4.70;2.80;;;15.60;99.90;;;;;;5035064;28;20022;-76
2022/06/11 05:14:06;;;;;;;6.82;3.70;;;15.70;99.90;;;;;;5032832;28;20032;-75
2022/06/11 05:16:33;;;;;;;3.92;2.60;;;15.80;99.90;;;;;;5017387;28;20022;-75
2022/06/11 05:18:59;;;;;;;6.50;3.50;;;15.90;99.90;;;;;;5015436;28;20092;-76
2022/06/11 05:21:26;;;;;;;5.07;3.15;;;16.10;99.90;;;;;;5032770;28;20068;-75
2022/06/11 05:23:52;;;;;;;11.60;4.25;;;16.20;99.90;;;;;;5033605;28;20028;-76
2022/06/11 05:26:22;;;;;;;8.20;3.10;;;16.40;99.90;;;;;;5014260;28;20053;-76
2022/06/11 05:28:50;;;;;;;7.07;3.85;;;16.60;99.90;;;;;;5015544;28;20029;-76
2022/06/11 05:31:16;;;;;;;6.80;3.63;;;16.70;99.90;;;;;;5017174;28;20516;-76
2022/06/11 05:33:43;;;;;;;7.65;3.53;;;16.90;99.90;;;;;;5031496;28;20017;-76
2022/06/11 05:36:11;;;;;;;5.90;3.08;;;17.00;99.90;;;;;;5033153;28;20021;-76
2022/06/11 05:38:37;;;;;;;12.98;3.47;;;17.20;99.90;;;;;;5036547;28;20071;-76
2022/06/11 05:41:03;;;;;;;5.70;3.60;;;17.10;99.90;;;;;;5015716;28;20104;-76
2022/06/11 05:43:28;;;;;;;8.35;4.45;;;17.00;99.90;;;;;;5022331;28;20505;-76
2022/06/11 05:46:14;;;;;;;8.30;3.85;;;17.00;99.90;;;;;;5015473;28;20596;-76
2022/06/11 05:48:50;;;;;;;19.98;4.75;;;17.00;99.90;;;;;;5028694;28;20505;-75
2022/06/11 05:51:20;;;;;;;9.98;3.50;;;17.20;99.90;;;;;;5028038;28;20029;-76
2022/06/11 05:53:49;;;;;;;10.70;3.45;;;17.20;99.90;;;;;;5036142;28;20393;-77
2022/06/11 05:56:16;;;;;;;11.00;4.00;;;17.40;99.90;;;;;;5033082;28;20037;-77
2022/06/11 05:58:52;;;;;;;7.38;4.18;;;17.40;99.90;;;;;;5028212;28;20026;-77
2022/06/11 06:01:23;;;;;;;9.95;4.47;;;17.50;99.90;;;;;;5013377;28;20093;-76
2022/06/11 06:03:49;;;;;;;6.95;3.75;;;17.40;99.90;;;;;;5018739;28;20540;-76
2022/06/11 06:06:16;;;;;;;9.93;3.67;;;17.50;99.90;;;;;;5022082;28;20083;-77
2022/06/11 06:08:41;;;;;;;8.27;3.42;;;17.50;99.90;;;;;;5008579;28;20493;-77
2022/06/11 06:11:07;;;;;;;15.77;3.67;;;17.60;99.90;;;;;;5028241;28;20377;-76
2022/06/11 06:13:48;;;;;;;14.55;4.07;;;17.70;99.90;;;;;;5032397;28;20033;-76
2022/06/11 06:16:15;;;;;;;;;;;17.80;99.90;;;;;;5029805;28;20026;-76
2022/06/11 06:18:41;;;;;;;11.23;3.55;;;17.90;99.90;;;;;;5008481;28;20059;-76
2022/06/11 06:21:07;;;;;;;6.90;3.35;;;18.10;99.90;;;;;;5031380;28;20060;-76
2022/06/11 06:23:34;;;;;;;9.25;3.60;;;18.30;99.90;;;;;;5029925;28;20147;-77
2022/06/11 06:26:00;;;;;;;5.65;3.42;;;18.50;99.90;;;;;;5035555;28;20017;-77
2022/06/11 06:28:25;;;;;;;8.27;3.50;;;18.60;99.90;;;;;;5035245;28;20026;-76
2022/06/11 06:30:51;;;;;;;10.73;3.67;;;18.80;99.90;;;;;;5036036;28;20029;-77
2022/06/11 06:33:17;;;;;;;10.55;3.10;;;18.90;99.90;;;;;;5024440;28;20109;-77
2022/06/11 06:35:43;;;;;;;19.77;3.88;;;18.90;99.90;;;;;;5020058;28;20101;-77
2022/06/11 06:38:09;;;;;;;9.88;3.60;;;19.10;99.90;;;;;;5019402;28;20046;-77
2022/06/11 06:40:36;;;;;;;18.45;3.88;;;19.10;99.90;;;;;;5015980;28;20033;-76
2022/06/11 06:43:03;;;;;;;13.35;4.18;;;19.20;99.90;;;;;;5032711;28;20022;-77
2022/06/11 06:45:29;;;;;;;13.18;4.18;;;19.20;99.90;;;;;;5033977;28;20013;-77
2022/06/11 06:47:55;;;;;;;7.15;3.25;;;19.40;99.90;;;;;;5033830;28;20068;-77
2022/06/11 06:50:22;;;;;;;11.27;3.45;;;19.50;99.90;;;;;;5036159;28;20496;-76
2022/06/11 06:52:47;;;;;;;6.60;3.03;;;19.60;99.90;;;;;;5014927;28;20032;-77
2022/06/11 06:55:14;;;;;;;7.18;2.70;;;19.70;99.90;;;;;;5030570;28;20014;-77
2022/06/11 06:57:40;;;;;;;17.38;3.92;;;19.70;99.90;;;;;;5030384;28;20109;-75
2022/06/11 07:00:07;;;;;;;8.73;3.53;;;20.00;99.90;;;;;;5012057;28;20075;-77
2022/06/11 07:02:33;;;;;;;9.73;4.55;;;20.10;99.90;;;;;;5029297;28;20034;-75
2022/06/11 07:04:59;;;;;;;11.38;3.25;;;20.20;99.90;;;;;;5034998;28;20009;-76
2022/06/11 07:07:25;;;;;;;6.30;3.00;;;20.40;99.90;;;;;;5036936;28;20029;-75
2022/06/11 07:09:54;;;;;;;8.82;3.10;;;20.40;99.90;;;;;;5020320;28;20100;-75
2022/06/11 07:12:20;;;;;;;7.15;3.08;;;20.50;99.90;;;;;;5009341;28;20398;-75
2022/06/11 07:14:46;;;;;;;10.20;3.17;;;20.60;99.90;;;;;;5021512;28;20018;-75
2022/06/11 07:17:14;;;;;;;5.00;2.60;;;20.70;99.90;;;;;;5011197;28;20021;-75
2022/06/11 07:19:45;;;;;;;9.43;3.17;;;20.90;99.90;;;;;;5026031;28;20010;-75
2022/06/11 07:22:20;;;;;;;11.25;3.15;;;21.10;99.90;;;;;;5038556;28;20027;-75
2022/06/11 07:24:46;;;;;;;14.77;3.20;;;21.30;99.90;;;;;;5028660;28;20490;-75
2022/06/11 07:27:18;;;;;;;9.05;2.83;;;21.40;99.90;;;;;;5028053;28;20162;-75
2022/06/11 07:29:49;;;;;;;10.65;3.03;;;21.50;99.90;;;;;;5031734;28;20423;-76
2022/06/11 07:32:18;;;;;;;5.90;2.70;;;21.60;99.90;;;;;;5030867;28;20021;-76
2022/06/11 07:34:45;;;;;;;7.70;2.53;;;21.70;99.90;;;;;;5034347;28;20024;-76
2022/06/11 07:37:11;;;;;;;7.15;2.80;;;21.70;99.90;;;;;;5033161;28;20252;-76
2022/06/11 07:39:38;;;;;;;7.45;2.70;;;21.70;99.90;;;;;;5036785;28;20030;-77
2022/06/11 07:42:04;;;;;;;8.25;2.60;;;21.90;99.90;;;;;;5038976;28;20028;-76
2022/06/11 07:44:31;;;;;;;10.57;3.45;;;21.90;99.90;;;;;;5033160;28;20048;-77
2022/06/11 07:46:57;;;;;;;8.35;2.97;;;22.10;99.90;;;;;;5028774;28;20526;-77
2022/06/11 07:49:23;;;;;;;6.20;2.63;;;22.30;99.90;;;;;;5038504;28;20040;-76
2022/06/11 07:51:49;;;;;;;6.50;3.28;;;22.50;99.90;;;;;;5017903;28;20041;-77
2022/06/11 07:54:14;;;;;;;13.45;3.08;;;22.40;99.90;;;;;;5035646;28;20026;-77
2022/06/11 07:56:40;;;;;;;8.55;2.72;;;22.50;99.90;;;;;;5033908;28;20090;-76
2022/06/11 07:59:07;;;;;;;5.85;2.75;;;22.80;99.90;;;;;;5036711;28;20025;-77
2022/06/11 08:01:33;;;;;;;7.13;2.40;;;23.10;99.90;;;;;;5034543;28;20434;-76
2022/06/11 08:03:59;;;;;;;8.07;3.15;;;23.10;99.90;;;;;;5034333;28;20030;-76
2022/06/11 08:06:24;;;;;;;6.15;2.90;;;23.30;99.90;;;;;;5016423;28;20026;-79
2022/06/11 08:08:51;;;;;;;7.07;2.50;;;23.20;99.90;;;;;;5033930;28;20025;-77
2022/06/11 08:11:17;;;;;;;5.47;2.33;;;23.20;99.90;;;;;;5019415;28;20371;-78
2022/06/11 08:13:43;;;;;;;10.15;3.45;;;23.30;99.90;;;;;;5022568;28;20029;-78
2022/06/11 08:16:10;;;;;;;5.53;2.20;;;23.40;99.90;;;;;;5037779;28;20024;-79
2022/06/11 08:18:36;;;;;;;4.63;2.33;;;23.40;99.90;;;;;;5034888;28;20022;-79
2022/06/11 08:21:03;;;;;;;6.45;2.20;;;23.60;99.90;;;;;;5029797;28;20044;-79
2022/06/11 08:23:30;;;;;;;6.68;2.25;;;23.80;99.90;;;;;;5030720;28;20445;-78
2022/06/11 08:25:56;;;;;;;5.22;2.13;;;23.90;99.90;;;;;;5033980;28;20017;-79
2022/06/11 08:28:23;;;;;;;4.45;2.03;;;23.90;99.90;;;;;;5019385;28;20025;-79
2022/06/11 08:30:50;;;;;;;6.95;2.38;;;24.00;99.90;;;;;;5023735;28;20076;-79
2022/06/11 08:33:16;;;;;;;7.18;1.98;;;24.10;99.90;;;;;;5012309;28;20026;-79
2022/06/11 08:35:42;;;;;;;2.75;1.58;;;24.30;99.90;;;;;;5026102;28;20026;-79
2022/06/11 08:38:08;;;;;;;14.32;2.35;;;24.50;99.90;;;;;;5026756;28;20418;-80
2022/06/11 08:40:44;;;;;;;4.18;2.08;;;24.50;99.90;;;;;;5037797;28;20076;-78
2022/06/11 08:43:25;;;;;;;7.55;2.30;;;24.60;99.90;;;;;;5036836;28;20060;-78
2022/06/11 08:45:56;;;;;;;7.90;2.38;;;24.60;99.90;;;;;;5027995;28;20104;-77
2022/06/11 08:48:45;;;;;;;5.70;2.30;;;24.90;99.90;;;;;;5035369;28;20115;-77
2022/06/11 08:51:28;;;;;;;5.78;2.03;;;24.60;99.90;;;;;;5015946;28;20040;-77
2022/06/11 08:53:57;;;;;;;4.43;1.80;;;24.40;99.90;;;;;;4998675;28;20414;-77
2022/06/11 08:56:33;;;;;;;9.13;2.28;;;24.60;99.90;;;;;;5025167;28;20095;-78
2022/06/11 08:59:10;;;;;;;6.20;1.85;;;24.70;99.90;;;;;;5017500;28;20037;-77
2022/06/11 09:01:48;;;;;;;5.57;2.10;;;25.00;99.90;;;;;;5019787;28;20028;-78
2022/06/11 09:04:20;;;;;;;6.55;2.00;;;25.20;99.90;;;;;;5013290;28;20029;-78
2022/06/11 09:07:19;;;;;;;7.82;1.60;;;25.30;99.90;;;;;;5006853;28;20108;-78
2022/06/11 09:10:19;;;;;;;4.28;1.70;;;25.40;99.90;;;;;;5034209;28;20437;-77
2022/06/11 09:12:54;;;;;;;5.72;2.20;;;25.30;99.90;;;;;;5032017;28;20037;-77
2022/06/11 09:15:43;;;;;;;8.55;2.72;;;25.20;99.90;;;;;;5013136;28;20030;-78
2022/06/11 09:18:37;;;;;;;7.55;2.22;;;25.30;99.90;;;;;;5012149;28;20065;-78
2022/06/11 09:21:06;;;;;;;7.55;2.75;;;25.40;99.90;;;;;;5010725;28;20046;-77
2022/06/11 09:23:34;;;;;;;8.15;2.03;;;25.30;99.90;;;;;;5034117;28;20068;-78
2022/06/11 09:26:15;;;;;;;6.30;1.85;;;25.30;99.90;;;;;;5035433;28;20040;-78
2022/06/11 09:29:08;;;;;;;7.32;2.55;;;25.40;99.90;;;;;;5017575;28;20032;-78
2022/06/11 09:31:58;;;;;;;2.88;1.65;;;25.50;99.90;;;;;;5024719;28;20022;-79
2022/06/11 09:34:59;;;;;;;6.40;2.13;;;25.50;99.90;;;;;;5035644;28;20409;-79
2022/06/11 09:37:47;;;;;;;7.50;1.83;;;25.50;99.90;;;;;;5016872;28;20445;-80
2022/06/11 09:40:21;;;;;;;7.07;2.00;;;25.60;99.90;;;;;;5034051;28;20029;-79
2022/06/11 09:43:02;;;;;;;3.78;1.50;;;25.70;99.90;;;;;;5014753;28;20030;-79
2022/06/11 09:45:57;;;;;;;10.85;2.83;;;25.70;99.90;;;;;;5034363;28;20049;-78
2022/06/11 09:48:41;;;;;;;7.30;2.38;;;25.80;99.90;;;;;;5009316;28;20056;-79
2022/06/11 09:51:33;;;;;;;8.52;1.65;;;25.90;99.90;;;;;;5015301;28;20043;-80
2022/06/11 09:54:14;;;;;;;6.75;2.10;;;26.10;99.90;;;;;;5015609;28;20037;-80
2022/06/11 09:56:40;;;;;;;10.07;1.83;;;26.30;99.90;;;;;;5029467;28;20036;-79
2022/06/11 09:59:32;;;;;;;8.93;2.25;;;26.40;99.90;;;;;;5031298;28;20022;-80
2022/06/11 10:05:19;;;;;;;5.82;1.83;;;26.70;99.90;;;;;;4967162;28;20409;-79
2022/06/11 10:07:53;;;;;;;6.80;2.22;;;26.80;99.90;;;;;;5015615;28;20053;-80
2022/06/11 10:10:24;;;;;;;6.60;1.92;;;26.90;99.90;;;;;;5021389;28;20026;-77
2022/06/11 10:12:56;;;;;;;7.88;1.83;;;27.00;98.70;;;;;;5034208;28;20033;-78
2022/06/11 10:15:31;;;;;;;4.07;1.90;;;27.00;99.60;;;;;;5011506;28;20072;-78
2022/06/11 10:18:11;;;;;;;5.30;1.60;;;27.10;98.10;;;;;;5023361;28;20053;-78
2022/06/11 10:21:06;;;;;;;6.20;1.55;;;27.40;98.00;;;;;;5009336;28;20061;-78
2022/06/11 10:23:41;;;;;;;4.30;1.63;;;27.60;95.50;;;;;;5008875;28;20029;-78
2022/06/11 10:26:22;;;;;;;6.80;1.70;;;27.60;96.40;;;;;;5022589;28;20022;-83
2022/06/11 10:28:47;;;;;;;8.77;1.70;;;27.70;95.70;;;;;;5032704;28;20017;-77
2022/06/11 10:31:29;;;;;;;4.85;1.50;;;27.60;93.40;;;;;;5006357;28;20033;-80
2022/06/11 10:34:05;;;;;;;8.20;1.85;;;27.70;95.30;;;;;;5000445;28;20114;-81
2022/06/11 10:36:38;;;;;;;4.22;1.50;;;27.80;93.80;;;;;;5020370;28;20022;-79
2022/06/11 10:39:21;;;;;;;4.57;1.40;;;28.00;94.40;;;;;;5026265;28;20213;-84
2022/06/11 10:42:02;;;;;;;4.90;1.80;;;28.20;94.20;;;;;;5015732;28;20037;-83
2022/06/11 10:44:31;;;;;;;4.00;1.75;;;28.30;92.70;;;;;;5020400;28;20033;-81
2022/06/11 10:46:57;;;;;;;8.63;2.00;;;28.10;92.70;;;;;;5021491;28;20036;-79
2022/06/11 10:49:23;;;;;;;6.38;1.67;;;28.30;94.60;;;;;;5037046;28;20111;-80
2022/06/11 10:52:00;;;;;;;4.05;1.70;;;28.40;94.20;;;;;;5034098;28;20030;-81
2022/06/11 10:54:26;;;;;;;5.85;2.15;;;28.50;93.20;;;;;;5039686;28;20029;-79
2022/06/11 10:57:07;;;;;;;9.00;1.70;;;28.40;92.60;;;;;;5018320;28;20036;-80
2022/06/11 10:59:34;;;;;;;;;;;28.50;91.00;;;;;;5018722;28;20109;-80
2022/06/11 11:02:18;;;;;;;3.63;1.30;;;28.70;91.10;;;;;;5014767;28;20392;-80
2022/06/11 11:05:00;;;;;;;5.53;1.60;;;28.90;90.30;;;;;;5005957;28;20029;-81
2022/06/11 11:07:41;;;;;;;6.15;1.45;;;28.80;89.00;;;;;;5004562;28;20102;-81
2022/06/11 11:10:20;;;;;;;7.95;2.13;;;28.90;89.30;;;;;;5033259;28;20041;-80
2022/06/11 11:12:46;;;;;;;4.60;1.40;;;28.80;89.10;;;;;;5027427;28;20033;-77
2022/06/11 11:15:16;;;;;;;3.80;1.80;;;28.80;87.60;;;;;;5010913;28;20018;-79
2022/06/11 11:17:53;;;;;;;6.32;1.95;;;28.60;88.70;;;;;;5012154;28;20034;-80
2022/06/11 11:20:32;;;;;;;6.07;1.45;;;28.70;90.20;;;;;;5030319;28;20390;-80
2022/06/11 11:23:05;;;;;;;5.13;1.25;;;28.90;90.00;;;;;;5025854;28;20064;-80
2022/06/11 11:25:39;;;;;;;5.35;1.55;;;29.10;88.90;;;;;;5035023;28;20040;-80
2022/06/11 11:28:14;;;;;;;5.40;1.52;;;29.10;87.20;;;;;;5035873;28;20029;-80
2022/06/11 11:30:43;;;;;;;3.33;2.03;;;29.30;85.00;;;;;;5030996;28;20551;-81
2022/06/11 11:33:36;;;;;;;4.72;1.77;;;29.40;84.10;;;;;;5036317;28;20021;-78
2022/06/11 11:36:18;;;;;;;5.05;1.23;;;29.50;86.00;;;;;;5026793;28;20092;-78
2022/06/11 11:38:44;;;;;;;2.92;1.25;;;29.60;83.90;;;;;;5034983;28;20026;-77
2022/06/11 11:41:24;;;;;;;3.20;1.23;;;29.70;84.40;;;;;;5027159;28;20027;-77
2022/06/11 11:43:51;;;;;;;4.78;1.10;;;29.80;79.00;;;;;;5032974;28;20026;-76
2022/06/11 11:46:25;;;;;;;3.53;1.30;;;29.60;78.10;;;;;;5020800;28;20033;-76
2022/06/11 11:48:56;;;;;;;4.30;1.13;;;29.50;78.40;;;;;;5021584;28;20455;-76
2022/06/11 11:51:27;;;;;;;3.17;1.30;;;29.40;79.80;;;;;;5014345;28;20026;-76
2022/06/11 11:54:03;;;;;;;7.20;2.13;;;29.50;81.60;;;;;;5008377;28;20491;-75
2022/06/11 11:56:46;;;;;;;2.25;1.10;;;29.80;80.50;;;;;;5026789;28;20057;-77
2022/06/11 11:59:12;;;;;;;7.47;2.53;;;30.00;77.80;;;;;;5025412;28;20029;-75
2022/06/11 12:01:38;;;;;;;3.10;1.02;;;30.30;78.40;;;;;;5034928;28;20032;-75
2022/06/11 12:04:12;;;;;;;3.35;1.20;;;30.40;74.70;;;;;;5020831;28;20064;-76
2022/06/11 12:06:52;;;;;;;3.38;1.13;;;30.50;76.00;;;;;;5035645;28;20827;-76
2022/06/11 12:09:47;;;;;;;7.57;1.63;;;30.50;72.90;;;;;;5025916;28;20052;-75
2022/06/11 12:12:21;;;;;;;5.57;1.20;;;30.70;73.60;;;;;;5037283;28;20036;-77
2022/06/11 12:14:51;;;;;;;2.65;0.85;;;30.90;74.50;;;;;;5019952;28;20021;-77
2022/06/11 12:17:52;;;;;;;7.23;1.20;;;31.10;69.60;;;;;;5008314;28;20383;-79
2022/06/11 12:20:50;;;;;;;4.63;1.55;;;31.20;72.60;;;;;;5020716;28;20645;-77
2022/06/11 12:23:34;;;;;;;2.65;0.98;;;31.30;70.00;;;;;;5022005;28;20056;-78
2022/06/11 12:26:13;;;;;;;4.25;1.35;;;31.20;69.30;;;;;;5027813;28;20504;-77
2022/06/11 12:29:05;;;;;;;2.63;1.30;;;31.00;67.20;;;;;;5024697;28;20022;-77
2022/06/11 12:31:32;;;;;;;8.30;3.88;;;30.70;69.30;;;;;;5027235;28;20045;-77
2022/06/11 12:33:58;;;;;;;29.85;22.98;;;30.60;67.10;;;;;;5030293;28;20029;-77
2022/06/11 12:36:39;;;;;;;3.15;1.33;;;30.70;68.70;;;;;;5035397;28;20028;-78
2022/06/11 12:39:09;;;;;;;1.65;1.00;;;30.80;67.60;;;;;;5006783;28;20101;-78
2022/06/11 12:41:53;;;;;;;1.23;0.88;;;31.10;65.20;;;;;;5033889;28;20056;-78
2022/06/11 12:44:56;;;;;;;2.03;1.05;;;31.30;63.40;;;;;;5036635;28;20449;-78
2022/06/11 12:47:41;;;;;;;3.85;1.08;;;31.30;64.70;;;;;;5018561;28;20042;-77
2022/06/11 12:50:26;;;;;;;4.32;0.98;;;31.30;64.10;;;;;;5003002;28;20029;-77
2022/06/11 12:53:11;;;;;;;2.15;0.85;;;31.20;62.90;;;;;;5002310;28;20026;-77
2022/06/11 12:55:46;;;;;;;3.20;0.90;;;31.10;61.10;;;;;;5007411;28;20025;-80
2022/06/11 12:58:57;;;;;;;4.18;0.90;;;31.10;59.70;;;;;;5035472;28;20473;-79
2022/06/11 13:01:49;;;;;;;2.20;0.90;;;31.30;61.00;;;;;;5012009;28;20014;-78
2022/06/11 13:04:37;;;;;;;2.95;0.90;;;31.90;59.90;;;;;;5015096;28;20029;-79
2022/06/11 13:07:08;;;;;;;1.33;0.85;;;32.20;59.90;;;;;;5035054;28;20026;-79
2022/06/11 13:09:42;;;;;;;3.85;1.10;;;32.40;61.60;;;;;;5033858;28;20073;-78
2022/06/11 13:12:32;;;;;;;3.60;1.10;;;32.50;60.00;;;;;;5018918;28;20159;-77
2022/06/11 13:15:27;;;;;;;;;;;32.60;61.20;;;;;;5031833;28;20045;-79
2022/06/11 13:18:25;;;;;;;5.90;1.15;;;32.70;58.20;;;;;;5016922;28;19952;-79
2022/06/11 13:20:57;;;;;;;1.70;1.00;;;32.60;59.60;;;;;;5028561;28;20039;-79
2022/06/11 13:23:35;;;;;;;1.63;0.82;;;32.50;58.60;;;;;;5018840;28;20029;-80